sensor_id;sensor_type;location;lat;lon;timestamp;pressure;altitude;pressure_sealevel;temperature;humidity
76994;BME280;66749;47.406;18.822;2023-07-09T00:00:18;100782.84;;;17.97;75.32
76994;BME280;66749;47.406;18.822;2023-07-09T00:00:51;100785.50;;;17.97;75.78
76994;BME280;66749;47.406;18.822;2023-07-09T00:01:23;100781.31;;;17.94;75.20
76994;BME280;66749;47.406;18.822;2023-07-09T00:01:55;100780.59;;;17.92;75.40
76994;BME280;66749;47.406;18.822;2023-07-09T00:02:27;100786.59;;;17.94;75.52
76994;BME280;66749;47.406;18.822;2023-07-09T00:02:59;100786.84;;;17.91;75.63
76994;BME280;66749;47.406;18.822;2023-07-09T00:03:31;100783.72;;;17.86;75.91
76994;BME280;66749;47.406;18.822;2023-07-09T00:04:03;100789.00;;;17.86;75.76
76994;BME280;66749;47.406;18.822;2023-07-09T00:04:35;100788.63;;;17.91;76.28
76994;BME280;66749;47.406;18.822;2023-07-09T00:05:13;100781.94;;;17.87;75.77
76994;BME280;66749;47.406;18.822;2023-07-09T00:05:48;100788.16;;;17.86;75.64
76994;BME280;66749;47.406;18.822;2023-07-09T00:06:20;100788.75;;;17.89;75.68
76994;BME280;66749;47.406;18.822;2023-07-09T00:06:55;100787.22;;;17.87;75.86
76994;BME280;66749;47.406;18.822;2023-07-09T00:07:32;100788.88;;;17.88;76.02
76994;BME280;66749;47.406;18.822;2023-07-09T00:08:04;100784.56;;;17.87;76.00
76994;BME280;66749;47.406;18.822;2023-07-09T00:08:42;100790.81;;;17.86;76.09
76994;BME280;66749;47.406;18.822;2023-07-09T00:09:18;100789.38;;;17.82;75.88
76994;BME280;66749;47.406;18.822;2023-07-09T00:09:51;100789.22;;;17.83;75.75
76994;BME280;66749;47.406;18.822;2023-07-09T00:10:22;100786.59;;;17.83;75.97
76994;BME280;66749;47.406;18.822;2023-07-09T00:10:58;100793.69;;;17.83;75.90
76994;BME280;66749;47.406;18.822;2023-07-09T00:11:30;100789.13;;;17.85;75.82
76994;BME280;66749;47.406;18.822;2023-07-09T00:12:02;100789.00;;;17.86;75.91
76994;BME280;66749;47.406;18.822;2023-07-09T00:12:34;100790.81;;;17.86;75.66
76994;BME280;66749;47.406;18.822;2023-07-09T00:13:07;100790.94;;;17.84;76.01
76994;BME280;66749;47.406;18.822;2023-07-09T00:13:39;100792.97;;;17.81;75.92
76994;BME280;66749;47.406;18.822;2023-07-09T00:14:13;100789.75;;;17.77;75.77
76994;BME280;66749;47.406;18.822;2023-07-09T00:14:46;100792.97;;;17.81;76.06
76994;BME280;66749;47.406;18.822;2023-07-09T00:15:18;100792.00;;;17.82;75.71
76994;BME280;66749;47.406;18.822;2023-07-09T00:15:50;100797.16;;;17.83;75.77
76994;BME280;66749;47.406;18.822;2023-07-09T00:16:25;100790.34;;;17.81;75.82
76994;BME280;66749;47.406;18.822;2023-07-09T00:16:58;100792.00;;;17.82;76.00
76994;BME280;66749;47.406;18.822;2023-07-09T00:17:32;100786.16;;;17.78;76.04
76994;BME280;66749;47.406;18.822;2023-07-09T00:18:09;100788.53;;;17.81;75.92
76994;BME280;66749;47.406;18.822;2023-07-09T00:18:41;100785.75;;;17.83;75.42
76994;BME280;66749;47.406;18.822;2023-07-09T00:19:18;100788.78;;;17.78;75.84
76994;BME280;66749;47.406;18.822;2023-07-09T00:19:50;100795.47;;;17.82;76.12
76994;BME280;66749;47.406;18.822;2023-07-09T00:20:23;100792.84;;;17.82;75.61
76994;BME280;66749;47.406;18.822;2023-07-09T00:20:55;100788.41;;;17.83;75.94
76994;BME280;66749;47.406;18.822;2023-07-09T00:21:26;100786.16;;;17.78;76.07
76994;BME280;66749;47.406;18.822;2023-07-09T00:22:14;100801.84;;;17.80;76.72
76994;BME280;66749;47.406;18.822;2023-07-09T00:22:48;100795.25;;;17.74;76.30
76994;BME280;66749;47.406;18.822;2023-07-09T00:23:24;100793.44;;;17.74;76.09
76994;BME280;66749;47.406;18.822;2023-07-09T00:23:55;100789.00;;;17.75;76.13
76994;BME280;66749;47.406;18.822;2023-07-09T00:24:27;100788.91;;;17.77;75.98
76994;BME280;66749;47.406;18.822;2023-07-09T00:25:00;100790.72;;;17.76;76.19
76994;BME280;66749;47.406;18.822;2023-07-09T00:25:32;100797.78;;;17.75;75.99
76994;BME280;66749;47.406;18.822;2023-07-09T00:26:12;100785.06;;;17.81;75.83
76994;BME280;66749;47.406;18.822;2023-07-09T00:26:45;100797.41;;;17.80;75.93
76994;BME280;66749;47.406;18.822;2023-07-09T00:27:22;100785.53;;;17.74;76.07
76994;BME280;66749;47.406;18.822;2023-07-09T00:27:55;100787.22;;;17.75;76.20
76994;BME280;66749;47.406;18.822;2023-07-09T00:28:27;100793.22;;;17.78;75.98
76994;BME280;66749;47.406;18.822;2023-07-09T00:29:00;100787.81;;;17.79;75.74
76994;BME280;66749;47.406;18.822;2023-07-09T00:29:32;100787.13;;;17.77;75.92
76994;BME280;66749;47.406;18.822;2023-07-09T00:30:04;100787.81;;;17.79;75.87
76994;BME280;66749;47.406;18.822;2023-07-09T00:30:36;100796.94;;;17.75;75.74
76994;BME280;66749;47.406;18.822;2023-07-09T00:31:13;100790.59;;;17.78;75.84
76994;BME280;66749;47.406;18.822;2023-07-09T00:31:46;100793.09;;;17.79;75.40
76994;BME280;66749;47.406;18.822;2023-07-09T00:32:19;100792.13;;;17.80;75.75
76994;BME280;66749;47.406;18.822;2023-07-09T00:32:56;100794.78;;;17.80;75.73
76994;BME280;66749;47.406;18.822;2023-07-09T00:33:28;100792.38;;;17.77;75.54
76994;BME280;66749;47.406;18.822;2023-07-09T00:34:03;100792.63;;;17.74;75.88
76994;BME280;66749;47.406;18.822;2023-07-09T00:34:35;100787.34;;;17.74;76.08
76994;BME280;66749;47.406;18.822;2023-07-09T00:35:09;100795.25;;;17.74;75.65
76994;BME280;66749;47.406;18.822;2023-07-09T00:35:42;100790.22;;;17.71;76.13
76994;BME280;66749;47.406;18.822;2023-07-09T00:36:16;100794.69;;;17.70;75.83
76994;BME280;66749;47.406;18.822;2023-07-09T00:36:50;100790.44;;;17.68;76.09
76994;BME280;66749;47.406;18.822;2023-07-09T00:37:24;100793.06;;;17.68;76.23
76994;BME280;66749;47.406;18.822;2023-07-09T00:37:57;100792.13;;;17.69;76.04
76994;BME280;66749;47.406;18.822;2023-07-09T00:38:32;100792.34;;;17.66;76.70
76994;BME280;66749;47.406;18.822;2023-07-09T00:39:18;100795.84;;;17.66;75.93
76994;BME280;66749;47.406;18.822;2023-07-09T00:39:51;100798.72;;;17.63;76.49
76994;BME280;66749;47.406;18.822;2023-07-09T00:40:23;100799.44;;;17.65;76.28
76994;BME280;66749;47.406;18.822;2023-07-09T00:41:04;100801.25;;;17.65;75.97
76994;BME280;66749;47.406;18.822;2023-07-09T00:41:37;100797.75;;;17.64;76.23
76994;BME280;66749;47.406;18.822;2023-07-09T00:42:14;100805.19;;;17.59;76.22
76994;BME280;66749;47.406;18.822;2023-07-09T00:42:54;100800.16;;;17.56;75.92
76994;BME280;66749;47.406;18.822;2023-07-09T00:43:32;100797.28;;;17.59;76.00
76994;BME280;66749;47.406;18.822;2023-07-09T00:44:29;100798.00;;;17.50;76.33
76994;BME280;66749;47.406;18.822;2023-07-09T00:45:01;100799.47;;;17.54;76.41
76994;BME280;66749;47.406;18.822;2023-07-09T00:45:36;100797.03;;;17.51;76.60
76994;BME280;66749;47.406;18.822;2023-07-09T00:47:18;100790.94;;;17.51;76.59
76994;BME280;66749;47.406;18.822;2023-07-09T00:47:20;100792.72;;;17.50;76.63
76994;BME280;66749;47.406;18.822;2023-07-09T00:47:56;100793.34;;;17.54;76.35
76994;BME280;66749;47.406;18.822;2023-07-09T00:48:30;100793.94;;;17.57;75.91
76994;BME280;66749;47.406;18.822;2023-07-09T00:49:07;100791.41;;;17.56;76.75
76994;BME280;66749;47.406;18.822;2023-07-09T00:49:40;100783.72;;;17.53;76.47
76994;BME280;66749;47.406;18.822;2023-07-09T00:51:12;100795.59;;;17.58;76.22
76994;BME280;66749;47.406;18.822;2023-07-09T00:51:46;100797.41;;;17.58;76.06
76994;BME280;66749;47.406;18.822;2023-07-09T00:52:33;100791.63;;;17.53;76.50
76994;BME280;66749;47.406;18.822;2023-07-09T00:53:18;100792.00;;;17.59;76.01
76994;BME280;66749;47.406;18.822;2023-07-09T00:53:55;100793.34;;;17.54;76.57
76994;BME280;66749;47.406;18.822;2023-07-09T00:54:37;100795.72;;;17.57;76.04
76994;BME280;66749;47.406;18.822;2023-07-09T00:55:13;100789.84;;;17.53;76.22
76994;BME280;66749;47.406;18.822;2023-07-09T00:55:54;100785.44;;;17.54;76.31
76994;BME280;66749;47.406;18.822;2023-07-09T00:56:34;100792.38;;;17.55;76.19
76994;BME280;66749;47.406;18.822;2023-07-09T00:57:15;100789.97;;;17.52;76.19
76994;BME280;66749;47.406;18.822;2023-07-09T00:57:53;100787.94;;;17.44;76.27
76994;BME280;66749;47.406;18.822;2023-07-09T00:58:31;100786.25;;;17.43;76.42
76994;BME280;66749;47.406;18.822;2023-07-09T00:59:07;100794.03;;;17.44;76.30
76994;BME280;66749;47.406;18.822;2023-07-09T00:59:42;100789.97;;;17.40;76.08
76994;BME280;66749;47.406;18.822;2023-07-09T01:00:14;100789.84;;;17.42;76.18
76994;BME280;66749;47.406;18.822;2023-07-09T01:00:56;100795.13;;;17.42;76.38
76994;BME280;66749;47.406;18.822;2023-07-09T01:01:32;100794.88;;;17.45;75.76
76994;BME280;66749;47.406;18.822;2023-07-09T01:02:07;100793.22;;;17.44;75.59
76994;BME280;66749;47.406;18.822;2023-07-09T01:02:44;100794.16;;;17.43;76.36
76994;BME280;66749;47.406;18.822;2023-07-09T01:03:28;100790.69;;;17.42;75.80
76994;BME280;66749;47.406;18.822;2023-07-09T01:04:02;100795.97;;;17.42;76.02
76994;BME280;66749;47.406;18.822;2023-07-09T01:04:35;100792.75;;;17.39;76.27
76994;BME280;66749;47.406;18.822;2023-07-09T01:05:08;100787.69;;;17.36;75.87
76994;BME280;66749;47.406;18.822;2023-07-09T01:05:40;100792.84;;;17.37;76.03
76994;BME280;66749;47.406;18.822;2023-07-09T01:06:15;100788.53;;;17.36;76.37
76994;BME280;66749;47.406;18.822;2023-07-09T01:06:52;100794.06;;;17.33;76.27
76994;BME280;66749;47.406;18.822;2023-07-09T01:07:27;100794.91;;;17.34;76.49
76994;BME280;66749;47.406;18.822;2023-07-09T01:08:00;100791.63;;;17.30;76.41
76994;BME280;66749;47.406;18.822;2023-07-09T01:08:34;100793.22;;;17.33;76.48
76994;BME280;66749;47.406;18.822;2023-07-09T01:09:07;100789.97;;;17.29;76.44
76994;BME280;66749;47.406;18.822;2023-07-09T01:09:39;100796.31;;;17.27;76.92
76994;BME280;66749;47.406;18.822;2023-07-09T01:10:16;100801.59;;;17.27;76.94
76994;BME280;66749;47.406;18.822;2023-07-09T01:10:50;100794.78;;;17.24;76.51
76994;BME280;66749;47.406;18.822;2023-07-09T01:11:22;100797.03;;;17.17;76.95
76994;BME280;66749;47.406;18.822;2023-07-09T01:11:55;100795.13;;;17.19;76.83
76994;BME280;66749;47.406;18.822;2023-07-09T01:12:28;100794.53;;;17.16;76.85
76994;BME280;66749;47.406;18.822;2023-07-09T01:13:02;100795.59;;;17.13;77.16
76994;BME280;66749;47.406;18.822;2023-07-09T01:13:34;100793.06;;;17.12;76.67
76994;BME280;66749;47.406;18.822;2023-07-09T01:14:10;100794.88;;;17.11;77.17
76994;BME280;66749;47.406;18.822;2023-07-09T01:14:42;100791.41;;;17.11;76.85
76994;BME280;66749;47.406;18.822;2023-07-09T01:15:15;100788.63;;;17.12;77.04
76994;BME280;66749;47.406;18.822;2023-07-09T01:15:48;100792.94;;;17.13;76.96
76994;BME280;66749;47.406;18.822;2023-07-09T01:16:23;100797.03;;;17.17;76.94
76994;BME280;66749;47.406;18.822;2023-07-09T01:17:05;100795.00;;;17.21;76.55
76994;BME280;66749;47.406;18.822;2023-07-09T01:17:37;100794.88;;;17.23;76.43
76994;BME280;66749;47.406;18.822;2023-07-09T01:18:09;100798.47;;;17.22;76.50
76994;BME280;66749;47.406;18.822;2023-07-09T01:18:42;100791.31;;;17.24;76.40
76994;BME280;66749;47.406;18.822;2023-07-09T01:19:15;100793.81;;;17.25;76.19
76994;BME280;66749;47.406;18.822;2023-07-09T01:19:50;100796.78;;;17.20;76.58
76994;BME280;66749;47.406;18.822;2023-07-09T01:20:22;100793.19;;;17.22;76.37
76994;BME280;66749;47.406;18.822;2023-07-09T01:21:08;100793.19;;;17.22;76.48
76994;BME280;66749;47.406;18.822;2023-07-09T01:21:46;100794.28;;;17.19;76.71
76994;BME280;66749;47.406;18.822;2023-07-09T01:22:20;100792.94;;;17.13;76.67
76994;BME280;66749;47.406;18.822;2023-07-09T01:22:52;100796.34;;;17.15;76.81
76994;BME280;66749;47.406;18.822;2023-07-09T01:23:28;100792.94;;;17.13;76.69
76994;BME280;66749;47.406;18.822;2023-07-09T01:25:23;100795.47;;;17.04;77.15
76994;BME280;66749;47.406;18.822;2023-07-09T01:25:55;100792.13;;;17.02;76.92
76994;BME280;66749;47.406;18.822;2023-07-09T01:26:27;100789.09;;;17.06;76.70
76994;BME280;66749;47.406;18.822;2023-07-09T01:26:59;100797.03;;;17.06;76.74
76994;BME280;66749;47.406;18.822;2023-07-09T01:27:42;100787.09;;;17.10;76.40
76994;BME280;66749;47.406;18.822;2023-07-09T01:28:14;100789.09;;;17.06;76.90
76994;BME280;66749;47.406;18.822;2023-07-09T01:28:49;100792.00;;;17.03;76.91
76994;BME280;66749;47.406;18.822;2023-07-09T01:29:21;100790.31;;;17.02;76.89
76994;BME280;66749;47.406;18.822;2023-07-09T01:29:56;100795.47;;;17.04;77.07
76994;BME280;66749;47.406;18.822;2023-07-09T01:30:35;100804.34;;;17.03;77.27
76994;BME280;66749;47.406;18.822;2023-07-09T01:31:08;100799.78;;;17.05;77.14
76994;BME280;66749;47.406;18.822;2023-07-09T01:31:40;100797.38;;;17.02;76.99
76994;BME280;66749;47.406;18.822;2023-07-09T01:32:14;100802.53;;;17.03;77.05
76994;BME280;66749;47.406;18.822;2023-07-09T01:32:46;100801.69;;;17.03;76.78
76994;BME280;66749;47.406;18.822;2023-07-09T01:33:18;100795.72;;;17.01;76.73
76994;BME280;66749;47.406;18.822;2023-07-09T01:33:50;100802.88;;;16.99;77.01
76994;BME280;66749;47.406;18.822;2023-07-09T01:34:21;100800.13;;;17.00;77.05
76994;BME280;66749;47.406;18.822;2023-07-09T01:34:58;100804.34;;;17.03;76.90
76994;BME280;66749;47.406;18.822;2023-07-09T01:35:38;100805.19;;;17.03;76.71
76994;BME280;66749;47.406;18.822;2023-07-09T01:36:17;100800.25;;;16.99;76.44
76994;BME280;66749;47.406;18.822;2023-07-09T01:36:49;100805.63;;;16.97;76.55
76994;BME280;66749;47.406;18.822;2023-07-09T01:37:27;100802.28;;;16.95;77.10
76994;BME280;66749;47.406;18.822;2023-07-09T01:37:59;100803.97;;;16.96;76.63
76994;BME280;66749;47.406;18.822;2023-07-09T01:38:31;100807.44;;;16.97;76.75
76994;BME280;66749;47.406;18.822;2023-07-09T01:39:03;100812.84;;;16.95;76.89
76994;BME280;66749;47.406;18.822;2023-07-09T01:39:35;100808.28;;;16.97;76.77
76994;BME280;66749;47.406;18.822;2023-07-09T01:40:08;100807.56;;;16.95;77.06
76994;BME280;66749;47.406;18.822;2023-07-09T01:41:01;100804.66;;;16.87;77.05
76994;BME280;66749;47.406;18.822;2023-07-09T01:41:33;100803.22;;;16.83;77.09
76994;BME280;66749;47.406;18.822;2023-07-09T01:42:07;100805.25;;;16.79;77.53
76994;BME280;66749;47.406;18.822;2023-07-09T01:42:40;100807.88;;;16.79;77.63
76994;BME280;66749;47.406;18.822;2023-07-09T01:43:12;100808.72;;;16.80;77.79
76994;BME280;66749;47.406;18.822;2023-07-09T01:43:46;100800.09;;;16.78;77.22
76994;BME280;66749;47.406;18.822;2023-07-09T01:44:18;100804.41;;;16.79;77.14
76994;BME280;66749;47.406;18.822;2023-07-09T01:44:52;100804.50;;;16.77;77.58
76994;BME280;66749;47.406;18.822;2023-07-09T01:45:25;100815.28;;;16.74;77.67
76994;BME280;66749;47.406;18.822;2023-07-09T01:45:57;100803.06;;;16.73;77.39
76994;BME280;66749;47.406;18.822;2023-07-09T01:46:30;100807.38;;;16.74;77.56
76994;BME280;66749;47.406;18.822;2023-07-09T01:47:02;100812.66;;;16.74;77.63
76994;BME280;66749;47.406;18.822;2023-07-09T01:47:37;100812.53;;;16.76;77.38
76994;BME280;66749;47.406;18.822;2023-07-09T01:48:09;100806.41;;;16.75;77.52
76994;BME280;66749;47.406;18.822;2023-07-09T01:48:46;100805.59;;;16.75;77.11
76994;BME280;66749;47.406;18.822;2023-07-09T01:49:17;100809.06;;;16.75;77.40
76994;BME280;66749;47.406;18.822;2023-07-09T01:49:50;100810.13;;;16.73;77.48
76994;BME280;66749;47.406;18.822;2023-07-09T01:50:22;100816.38;;;16.72;77.44
76994;BME280;66749;47.406;18.822;2023-07-09T01:50:56;100812.22;;;16.68;77.54
76994;BME280;66749;47.406;18.822;2023-07-09T01:51:28;100808.47;;;16.72;77.78
76994;BME280;66749;47.406;18.822;2023-07-09T01:52:01;100819.31;;;16.67;77.78
76994;BME280;66749;47.406;18.822;2023-07-09T01:52:34;100814.69;;;16.71;77.81
76994;BME280;66749;47.406;18.822;2023-07-09T01:53:07;100811.09;;;16.72;77.40
76994;BME280;66749;47.406;18.822;2023-07-09T01:53:40;100812.97;;;16.70;77.42
76994;BME280;66749;47.406;18.822;2023-07-09T01:54:12;100807.72;;;16.70;77.75
76994;BME280;66749;47.406;18.822;2023-07-09T01:54:44;100814.28;;;16.64;77.76
76994;BME280;66749;47.406;18.822;2023-07-09T01:55:21;100818.47;;;16.67;77.77
76994;BME280;66749;47.406;18.822;2023-07-09T01:55:53;100814.03;;;16.67;77.82
76994;BME280;66749;47.406;18.822;2023-07-09T01:56:26;100815.31;;;16.61;77.72
76994;BME280;66749;47.406;18.822;2023-07-09T01:57:14;100818.72;;;16.63;77.83
76994;BME280;66749;47.406;18.822;2023-07-09T01:57:46;100820.97;;;16.68;77.42
76994;BME280;66749;47.406;18.822;2023-07-09T01:58:18;100819.31;;;16.67;77.42
76994;BME280;66749;47.406;18.822;2023-07-09T01:58:50;100819.53;;;16.64;77.42
76994;BME280;66749;47.406;18.822;2023-07-09T01:59:22;100818.91;;;16.60;77.80
76994;BME280;66749;47.406;18.822;2023-07-09T01:59:55;100818.91;;;16.60;77.63
76994;BME280;66749;47.406;18.822;2023-07-09T02:00:27;100813.88;;;16.57;77.82
76994;BME280;66749;47.406;18.822;2023-07-09T02:00:59;100816.00;;;16.52;77.79
76994;BME280;66749;47.406;18.822;2023-07-09T02:01:31;100819.28;;;16.56;77.91
76994;BME280;66749;47.406;18.822;2023-07-09T02:02:05;100819.38;;;16.54;77.49
76994;BME280;66749;47.406;18.822;2023-07-09T02:02:37;100816.84;;;16.53;77.61
76994;BME280;66749;47.406;18.822;2023-07-09T02:03:18;100818.44;;;16.55;77.72
76994;BME280;66749;47.406;18.822;2023-07-09T02:03:50;100814.94;;;16.55;77.36
76994;BME280;66749;47.406;18.822;2023-07-09T02:04:22;100816.84;;;16.53;77.90
76994;BME280;66749;47.406;18.822;2023-07-09T02:04:55;100822.25;;;16.51;78.21
76994;BME280;66749;47.406;18.822;2023-07-09T02:05:30;100823.19;;;16.50;77.67
76994;BME280;66749;47.406;18.822;2023-07-09T02:06:03;100818.13;;;16.47;78.06
76994;BME280;66749;47.406;18.822;2023-07-09T02:06:41;100820.56;;;16.50;78.05
76994;BME280;66749;47.406;18.822;2023-07-09T02:07:14;100817.94;;;16.50;77.71
76994;BME280;66749;47.406;18.822;2023-07-09T02:07:47;100819.22;;;16.45;78.12
76994;BME280;66749;47.406;18.822;2023-07-09T02:08:19;100818.13;;;16.47;78.11
76994;BME280;66749;47.406;18.822;2023-07-09T02:08:51;100820.06;;;16.45;78.09
76994;BME280;66749;47.406;18.822;2023-07-09T02:09:23;100819.94;;;16.47;77.73
76994;BME280;66749;47.406;18.822;2023-07-09T02:09:55;100813.94;;;16.45;78.29
76994;BME280;66749;47.406;18.822;2023-07-09T02:10:27;100828.06;;;16.44;78.23
76994;BME280;66749;47.406;18.822;2023-07-09T02:10:59;100820.06;;;16.45;78.17
76994;BME280;66749;47.406;18.822;2023-07-09T02:11:31;100828.69;;;16.47;77.77
76994;BME280;66749;47.406;18.822;2023-07-09T02:12:03;100819.34;;;16.43;77.83
76994;BME280;66749;47.406;18.822;2023-07-09T02:12:35;100817.41;;;16.45;78.13
76994;BME280;66749;47.406;18.822;2023-07-09T02:13:07;100827.97;;;16.45;78.17
76994;BME280;66749;47.406;18.822;2023-07-09T02:13:38;100815.03;;;16.42;78.06
76994;BME280;66749;47.406;18.822;2023-07-09T02:14:10;100829.16;;;16.41;78.01
76994;BME280;66749;47.406;18.822;2023-07-09T02:14:43;100825.03;;;16.37;78.65
76994;BME280;66749;47.406;18.822;2023-07-09T02:15:16;100820.50;;;16.39;78.24
76994;BME280;66749;47.406;18.822;2023-07-09T02:15:48;100817.16;;;16.37;78.25
76994;BME280;66749;47.406;18.822;2023-07-09T02:16:20;100824.09;;;16.38;78.27
76994;BME280;66749;47.406;18.822;2023-07-09T02:16:52;100828.31;;;16.41;78.20
76994;BME280;66749;47.406;18.822;2023-07-09T02:17:24;100823.25;;;16.37;78.31
76994;BME280;66749;47.406;18.822;2023-07-09T02:17:56;100820.63;;;16.37;78.19
76994;BME280;66749;47.406;18.822;2023-07-09T02:18:30;100822.22;;;16.40;78.33
76994;BME280;66749;47.406;18.822;2023-07-09T02:19:02;100824.09;;;16.38;77.98
76994;BME280;66749;47.406;18.822;2023-07-09T02:19:34;100824.31;;;16.35;77.83
76994;BME280;66749;47.406;18.822;2023-07-09T02:20:08;100825.28;;;16.34;78.35
76994;BME280;66749;47.406;18.822;2023-07-09T02:20:40;100821.69;;;16.35;78.24
76994;BME280;66749;47.406;18.822;2023-07-09T02:21:12;100824.22;;;16.36;78.04
76994;BME280;66749;47.406;18.822;2023-07-09T02:21:44;100818.34;;;16.33;78.23
76994;BME280;66749;47.406;18.822;2023-07-09T02:22:16;100826.97;;;16.35;78.08
76994;BME280;66749;47.406;18.822;2023-07-09T02:22:50;100821.81;;;16.33;78.18
76994;BME280;66749;47.406;18.822;2023-07-09T02:23:26;100824.53;;;16.32;77.94
76994;BME280;66749;47.406;18.822;2023-07-09T02:23:58;100830.75;;;16.31;78.18
76994;BME280;66749;47.406;18.822;2023-07-09T02:24:30;100831.00;;;16.28;78.49
76994;BME280;66749;47.406;18.822;2023-07-09T02:25:04;100822.13;;;16.29;78.14
76994;BME280;66749;47.406;18.822;2023-07-09T02:25:37;100828.34;;;16.28;78.34
76994;BME280;66749;47.406;18.822;2023-07-09T02:26:09;100829.31;;;16.27;78.43
76994;BME280;66749;47.406;18.822;2023-07-09T02:26:41;100831.72;;;16.30;78.64
76994;BME280;66749;47.406;18.822;2023-07-09T02:27:16;100824.78;;;16.29;78.48
76994;BME280;66749;47.406;18.822;2023-07-09T02:27:48;100828.34;;;16.28;78.42
76994;BME280;66749;47.406;18.822;2023-07-09T02:28:20;100829.53;;;16.24;78.83
76994;BME280;66749;47.406;18.822;2023-07-09T02:28:51;100829.53;;;16.24;79.11
76994;BME280;66749;47.406;18.822;2023-07-09T02:29:24;100831.59;;;16.31;78.99
76994;BME280;66749;47.406;18.822;2023-07-09T02:29:57;100827.28;;;16.30;78.46
76994;BME280;66749;47.406;18.822;2023-07-09T02:30:29;100829.09;;;16.30;78.57
76994;BME280;66749;47.406;18.822;2023-07-09T02:31:00;100832.66;;;16.29;78.96
76994;BME280;66749;47.406;18.822;2023-07-09T02:31:32;100831.00;;;16.28;78.80
76994;BME280;66749;47.406;18.822;2023-07-09T02:32:05;100830.03;;;16.29;79.26
76994;BME280;66749;47.406;18.822;2023-07-09T02:32:38;100834.47;;;16.28;79.24
76994;BME280;66749;47.406;18.822;2023-07-09T02:33:10;100833.38;;;16.31;79.01
76994;BME280;66749;47.406;18.822;2023-07-09T02:33:41;100825.41;;;16.32;78.83
76994;BME280;66749;47.406;18.822;2023-07-09T02:34:13;100829.81;;;16.32;78.98
76994;BME280;66749;47.406;18.822;2023-07-09T02:34:45;100830.88;;;16.29;78.66
76994;BME280;66749;47.406;18.822;2023-07-09T02:35:21;100828.13;;;16.31;79.25
76994;BME280;66749;47.406;18.822;2023-07-09T02:35:53;100830.56;;;16.34;79.05
76994;BME280;66749;47.406;18.822;2023-07-09T02:36:25;100829.81;;;16.32;78.75
76994;BME280;66749;47.406;18.822;2023-07-09T02:36:58;100829.59;;;16.35;78.58
76994;BME280;66749;47.406;18.822;2023-07-09T02:37:30;100825.28;;;16.34;78.84
76994;BME280;66749;47.406;18.822;2023-07-09T02:38:03;100828.63;;;16.36;78.76
76994;BME280;66749;47.406;18.822;2023-07-09T02:38:35;100833.06;;;16.35;78.01
76994;BME280;66749;47.406;18.822;2023-07-09T02:39:07;100826.84;;;16.36;78.11
76994;BME280;66749;47.406;18.822;2023-07-09T02:39:39;100824.53;;;16.32;78.58
76994;BME280;66749;47.406;18.822;2023-07-09T02:40:13;100822.41;;;16.37;78.17
76994;BME280;66749;47.406;18.822;2023-07-09T02:40:46;100824.09;;;16.38;78.22
76994;BME280;66749;47.406;18.822;2023-07-09T02:41:17;100825.78;;;16.39;77.80
76994;BME280;66749;47.406;18.822;2023-07-09T02:41:50;100823.25;;;16.37;77.96
76994;BME280;66749;47.406;18.822;2023-07-09T02:42:22;100821.56;;;16.36;78.14
76994;BME280;66749;47.406;18.822;2023-07-09T02:42:55;100829.47;;;16.36;78.15
76994;BME280;66749;47.406;18.822;2023-07-09T02:43:27;100827.28;;;16.30;78.41
76994;BME280;66749;47.406;18.822;2023-07-09T02:43:58;100818.66;;;16.28;77.98
76994;BME280;66749;47.406;18.822;2023-07-09T02:44:30;100827.16;;;16.32;78.45
76994;BME280;66749;47.406;18.822;2023-07-09T02:45:03;100827.16;;;16.32;77.76
76994;BME280;66749;47.406;18.822;2023-07-09T02:45:35;100820.22;;;16.31;77.74
76994;BME280;66749;47.406;18.822;2023-07-09T02:46:07;100821.91;;;16.32;78.22
76994;BME280;66749;47.406;18.822;2023-07-09T02:46:39;100822.84;;;16.31;77.89
76994;BME280;66749;47.406;18.822;2023-07-09T02:47:12;100828.88;;;16.33;77.79
76994;BME280;66749;47.406;18.822;2023-07-09T02:47:44;100824.78;;;16.29;77.57
76994;BME280;66749;47.406;18.822;2023-07-09T02:48:16;100828.13;;;16.31;77.80
76994;BME280;66749;47.406;18.822;2023-07-09T02:48:48;100821.19;;;16.30;77.65
76994;BME280;66749;47.406;18.822;2023-07-09T02:49:22;100822.84;;;16.31;77.90
76994;BME280;66749;47.406;18.822;2023-07-09T02:49:54;100829.19;;;16.28;77.98
76994;BME280;66749;47.406;18.822;2023-07-09T02:50:26;100829.19;;;16.28;77.52
76994;BME280;66749;47.406;18.822;2023-07-09T02:50:58;100828.25;;;16.29;78.00
76994;BME280;66749;47.406;18.822;2023-07-09T02:51:30;100832.56;;;16.30;77.62
76994;BME280;66749;47.406;18.822;2023-07-09T02:52:03;100825.72;;;16.28;77.23
76994;BME280;66749;47.406;18.822;2023-07-09T02:52:35;100827.63;;;16.26;77.35
76994;BME280;66749;47.406;18.822;2023-07-09T02:53:07;100831.00;;;16.28;77.74
76994;BME280;66749;47.406;18.822;2023-07-09T02:53:39;100829.31;;;16.27;77.64
76994;BME280;66749;47.406;18.822;2023-07-09T02:54:11;100830.28;;;16.26;77.68
76994;BME280;66749;47.406;18.822;2023-07-09T02:54:42;100835.41;;;16.27;77.42
76994;BME280;66749;47.406;18.822;2023-07-09T02:55:14;100841.00;;;16.23;78.12
76994;BME280;66749;47.406;18.822;2023-07-09T02:55:46;100833.88;;;16.25;77.62
76994;BME280;66749;47.406;18.822;2023-07-09T02:56:18;100838.91;;;16.28;77.29
76994;BME280;66749;47.406;18.822;2023-07-09T02:56:50;100835.75;;;16.23;77.59
76994;BME280;66749;47.406;18.822;2023-07-09T02:57:22;100840.81;;;16.26;77.95
76994;BME280;66749;47.406;18.822;2023-07-09T02:57:53;100833.00;;;16.24;77.43